createdAt,value
2022-11-19T00:01:22.125Z,95299.13
2022-11-19T00:03:52.594Z,95304.41
2022-11-19T00:06:24.048Z,95298.56
2022-11-19T00:08:51.023Z,95321.66
2022-11-19T00:11:40.784Z,95332.56
2022-11-19T00:14:09.719Z,95332.31
2022-11-19T00:16:36.691Z,95328.22
2022-11-19T00:19:04.085Z,95333.38
2022-11-19T00:21:30.832Z,95341.28
2022-11-19T00:23:57.832Z,95347.00
2022-11-19T00:26:24.958Z,95342.41
2022-11-19T00:28:51.634Z,95348.69
2022-11-19T00:31:18.767Z,95354.91
2022-11-19T00:33:46.154Z,95353.47
2022-11-19T00:36:15.435Z,95362.13
2022-11-19T00:38:42.921Z,95365.63
2022-11-19T00:41:10.000Z,95371.16
2022-11-19T00:43:49.960Z,95379.25
2022-11-19T00:46:31.027Z,95379.75
2022-11-19T00:48:59.515Z,95387.38
2022-11-19T00:51:29.189Z,95377.53
2022-11-19T00:53:56.267Z,95395.88
2022-11-19T00:56:24.931Z,95395.31
2022-11-19T00:58:52.401Z,95400.97
2022-11-19T01:01:20.802Z,95396.56
2022-11-19T01:03:48.149Z,95407.28
2022-11-19T01:06:19.365Z,95426.63
2022-11-19T01:08:51.010Z,95429.38
2022-11-19T01:11:20.822Z,95422.59
2022-11-19T01:13:48.090Z,95421.22
2022-11-19T01:16:24.868Z,95427.72
2022-11-19T01:18:52.299Z,95436.50
2022-11-19T01:21:20.594Z,95434.06
2022-11-19T01:23:47.706Z,95436.16
2022-11-19T01:26:16.016Z,95465.00
2022-11-19T01:28:42.894Z,95493.25
2022-11-19T01:31:12.322Z,95506.69
2022-11-19T01:33:39.394Z,95492.16
2022-11-19T01:36:08.998Z,95463.97
2022-11-19T01:38:35.859Z,95478.91
2022-11-19T01:41:03.708Z,95489.44
2022-11-19T01:44:04.623Z,95482.31
2022-11-19T01:46:33.918Z,95478.25
2022-11-19T01:49:14.597Z,95471.78
2022-11-19T01:52:00.875Z,95481.09
2022-11-19T01:54:44.191Z,95486.06
2022-11-19T01:57:14.771Z,95491.94
2022-11-19T01:59:43.807Z,95489.91
2022-11-19T02:02:10.735Z,95500.50
2022-11-19T02:04:37.572Z,95505.16
2022-11-19T02:07:04.607Z,95512.53
2022-11-19T02:09:33.323Z,95516.78
2022-11-19T02:12:13.483Z,95522.22
2022-11-19T02:15:06.041Z,95540.16
2022-11-19T02:18:01.668Z,95553.41
2022-11-19T02:20:43.649Z,95542.88
2022-11-19T02:23:22.870Z,95554.59
2022-11-19T02:26:01.642Z,95551.44
2022-11-19T02:28:48.141Z,95556.63
2022-11-19T02:31:14.880Z,95557.00
2022-11-19T02:34:01.530Z,95577.59
2022-11-19T02:37:05.232Z,95557.19
2022-11-19T02:39:45.190Z,95550.91
2022-11-19T02:42:20.429Z,95558.59
2022-11-19T02:45:02.996Z,95561.13
2022-11-19T02:47:39.030Z,95569.56
2022-11-19T02:50:13.494Z,95572.41
2022-11-19T02:52:43.981Z,95579.44
2022-11-19T02:55:13.772Z,95574.78
2022-11-19T02:57:42.886Z,95583.56
2022-11-19T03:00:28.703Z,95597.41
2022-11-19T03:03:30.313Z,95614.00
2022-11-19T03:06:11.191Z,95584.59
2022-11-19T03:08:38.426Z,95588.34
2022-11-19T03:11:23.852Z,95586.53
2022-11-19T03:14:21.175Z,95590.63
2022-11-19T03:17:40.400Z,95603.94
2022-11-19T03:20:19.209Z,95595.19
2022-11-19T03:22:56.062Z,95607.50
2022-11-19T03:25:26.586Z,95613.88
2022-11-19T03:27:58.815Z,95599.56
2022-11-19T03:30:26.672Z,95626.25
2022-11-19T03:33:08.663Z,95620.47
2022-11-19T03:35:45.379Z,95628.81
2022-11-19T03:38:16.871Z,95611.66
2022-11-19T03:40:44.982Z,95625.13
2022-11-19T03:43:15.905Z,95626.00
2022-11-19T03:45:45.507Z,95620.66
2022-11-19T03:48:15.851Z,95623.34
2022-11-19T03:51:07.164Z,95609.78
2022-11-19T03:53:33.998Z,95619.06
2022-11-19T03:56:04.099Z,95633.19
2022-11-19T03:58:38.021Z,95644.19
2022-11-19T04:01:04.875Z,95644.19
2022-11-19T04:03:31.602Z,95657.47
2022-11-19T04:05:58.331Z,95707.03
2022-11-19T04:08:25.290Z,95691.22
2022-11-19T04:10:51.990Z,95669.78
2022-11-19T04:13:18.763Z,95669.88
2022-11-19T04:15:45.490Z,95671.50
2022-11-19T04:18:12.213Z,95674.34
2022-11-19T04:20:38.861Z,95672.44
2022-11-19T04:23:05.542Z,95694.91
2022-11-19T04:25:32.212Z,95665.91
2022-11-19T04:27:58.904Z,95673.66
2022-11-19T04:30:25.715Z,95675.47
2022-11-19T04:32:52.521Z,95674.63
2022-11-19T04:35:22.049Z,95686.84
2022-11-19T04:37:49.166Z,95689.03
2022-11-19T04:40:16.036Z,95686.91
2022-11-19T04:42:43.318Z,95687.22
2022-11-19T04:45:10.439Z,95688.72
2022-11-19T04:47:37.963Z,95698.22
2022-11-19T04:50:04.983Z,95698.00
2022-11-19T04:52:37.661Z,95686.47
2022-11-19T04:55:07.313Z,95701.13
2022-11-19T04:57:33.979Z,95704.16
2022-11-19T05:00:00.784Z,95715.44
2022-11-19T05:02:27.614Z,95710.72
2022-11-19T05:04:54.284Z,95712.63
2022-11-19T05:07:21.119Z,95711.81
2022-11-19T05:09:47.916Z,95706.72
2022-11-19T05:12:14.642Z,95712.75
2022-11-19T05:14:41.555Z,95725.00
2022-11-19T05:17:08.454Z,95724.63
2022-11-19T05:19:35.291Z,95720.06
2022-11-19T05:22:02.013Z,95730.47
2022-11-19T05:24:28.764Z,95728.81
2022-11-19T05:26:55.487Z,95730.84
2022-11-19T05:29:22.357Z,95732.56
2022-11-19T05:31:49.176Z,95733.66
2022-11-19T05:34:15.987Z,95742.84
2022-11-19T05:36:42.649Z,95764.44
2022-11-19T05:39:09.417Z,95751.94
2022-11-19T05:41:36.199Z,95768.31
2022-11-19T05:44:03.385Z,95759.88
2022-11-19T05:46:30.136Z,95751.19
2022-11-19T05:48:56.900Z,95766.22
2022-11-19T05:51:23.721Z,95761.69
2022-11-19T05:53:50.534Z,95763.47
2022-11-19T05:56:17.355Z,95755.38
2022-11-19T05:58:44.085Z,95795.53
2022-11-19T06:01:10.730Z,95764.50
2022-11-19T06:03:37.460Z,95761.28
2022-11-19T06:06:04.456Z,95771.50
2022-11-19T06:08:31.206Z,95766.16
2022-11-19T06:10:58.106Z,95785.06
2022-11-19T06:13:24.821Z,95792.72
2022-11-19T06:15:51.621Z,95793.97
2022-11-19T06:18:18.441Z,95810.13
2022-11-19T06:20:45.172Z,95801.50
2022-11-19T06:23:11.876Z,95796.44
2022-11-19T06:25:38.527Z,95793.53
2022-11-19T06:28:05.398Z,95797.69
2022-11-19T06:30:32.087Z,95791.03
2022-11-19T06:32:59.004Z,95795.13
2022-11-19T06:35:26.443Z,95793.44
2022-11-19T06:37:53.091Z,95802.91
2022-11-19T06:40:19.841Z,95796.44
2022-11-19T06:42:50.799Z,95792.84
2022-11-19T06:45:17.939Z,95798.06
2022-11-19T06:47:47.675Z,95817.75
2022-11-19T06:50:14.435Z,95828.47
2022-11-19T06:52:41.208Z,95838.94
2022-11-19T06:55:08.352Z,95798.84
2022-11-19T06:57:35.026Z,95810.00
2022-11-19T07:00:01.733Z,95821.84
2022-11-19T07:02:28.550Z,95819.28
2022-11-19T07:04:55.289Z,95814.63
2022-11-19T07:07:22.192Z,95831.63
2022-11-19T07:09:49.138Z,95830.94
2022-11-19T07:12:15.869Z,95829.63
2022-11-19T07:14:42.719Z,95841.22
2022-11-19T07:17:09.529Z,95848.56
2022-11-19T07:19:36.288Z,95848.31
2022-11-19T07:22:03.070Z,95856.53
2022-11-19T07:24:29.814Z,95890.59
2022-11-19T07:26:56.661Z,95883.91
2022-11-19T07:29:23.635Z,95894.50
2022-11-19T07:31:50.972Z,95896.88
2022-11-19T07:34:18.223Z,95900.78
2022-11-19T07:36:45.708Z,95902.53
2022-11-19T07:39:12.682Z,95905.09
2022-11-19T07:41:57.955Z,95905.34
2022-11-19T07:44:24.623Z,95903.59
2022-11-19T07:46:51.343Z,95940.44
2022-11-19T07:49:18.822Z,95973.13
2022-11-19T07:51:46.023Z,95950.09
2022-11-19T07:54:13.018Z,95955.63
2022-11-19T07:56:40.614Z,95961.31
2022-11-19T07:59:07.334Z,95946.81
2022-11-19T08:01:34.532Z,95966.72
2022-11-19T08:04:02.461Z,95968.72
2022-11-19T08:06:30.074Z,95951.28
2022-11-19T08:08:56.787Z,95961.28
2022-11-19T08:11:24.501Z,95952.34
2022-11-19T08:13:51.800Z,95946.44
2022-11-19T08:16:37.603Z,95956.72
2022-11-19T08:19:09.939Z,95959.22
2022-11-19T08:21:40.218Z,95953.81
2022-11-19T08:24:08.298Z,95961.50
2022-11-19T08:26:35.297Z,95962.28
2022-11-19T08:29:02.203Z,95965.09
2022-11-19T08:31:29.135Z,95957.22
2022-11-19T08:33:56.098Z,95943.59
2022-11-19T08:36:22.929Z,95946.16
2022-11-19T08:38:49.766Z,95947.53
2022-11-19T08:41:35.192Z,95962.53
2022-11-19T08:44:02.727Z,95962.03
2022-11-19T08:46:29.464Z,95961.03
2022-11-19T08:48:56.225Z,95962.53
2022-11-19T08:51:23.057Z,95975.59
2022-11-19T08:53:52.641Z,95977.28
2022-11-19T08:56:20.341Z,95972.00
2022-11-19T08:58:47.789Z,95979.66
2022-11-19T09:01:16.608Z,95989.63
2022-11-19T09:03:44.021Z,95980.53
2022-11-19T09:06:11.587Z,95984.78
2022-11-19T09:08:39.079Z,95977.28
2022-11-19T09:11:07.890Z,95987.84
2022-11-19T09:13:35.043Z,95987.06
2022-11-19T09:16:02.309Z,95996.97
2022-11-19T09:18:29.058Z,96004.69
2022-11-19T09:20:56.802Z,95999.56
2022-11-19T09:23:25.247Z,95993.75
2022-11-19T09:26:03.282Z,96014.19
2022-11-19T09:28:31.010Z,95999.38
2022-11-19T09:30:59.570Z,96010.38
2022-11-19T09:33:27.032Z,96011.13
2022-11-19T09:35:53.876Z,96024.69
2022-11-19T09:38:20.877Z,96007.03
2022-11-19T09:40:52.779Z,96017.78
2022-11-19T09:43:44.478Z,96022.38
2022-11-19T09:46:36.383Z,96022.38
2022-11-19T09:49:10.689Z,96033.06
2022-11-19T09:51:42.765Z,96023.88
2022-11-19T09:54:18.886Z,96050.19
2022-11-19T09:56:47.700Z,96039.72
2022-11-19T09:59:33.766Z,96038.69
2022-11-19T10:02:00.733Z,96025.41
2022-11-19T10:04:31.913Z,96022.91
2022-11-19T10:07:21.586Z,96024.50
2022-11-19T10:10:20.750Z,96029.75
2022-11-19T10:13:12.320Z,96039.44
2022-11-19T10:15:55.917Z,96050.88
2022-11-19T10:18:40.199Z,96051.75
2022-11-19T10:21:31.814Z,96051.75
2022-11-19T10:24:28.598Z,96040.38
2022-11-19T10:27:05.775Z,96031.72
2022-11-19T10:29:38.608Z,96048.91
2022-11-19T10:32:24.163Z,96040.59
2022-11-19T10:34:58.768Z,96049.63
2022-11-19T10:37:31.503Z,96051.13
2022-11-19T10:40:08.404Z,96033.38
2022-11-19T10:42:39.889Z,96054.38
2022-11-19T10:45:21.211Z,96062.91
2022-11-19T10:48:04.552Z,96049.16
2022-11-19T10:50:34.333Z,96047.50
2022-11-19T10:53:13.878Z,96044.84
2022-11-19T10:56:06.272Z,96047.28
2022-11-19T10:58:40.705Z,96042.59
2022-11-19T11:01:17.510Z,96045.00
2022-11-19T11:03:49.445Z,96067.25
2022-11-19T11:06:16.218Z,96091.28
2022-11-19T11:08:56.537Z,96078.25
2022-11-19T11:11:50.268Z,96057.84
2022-11-19T11:14:38.821Z,96084.69
2022-11-19T11:17:18.704Z,96079.25
2022-11-19T11:19:45.704Z,96066.56
2022-11-19T11:22:12.611Z,96070.00
2022-11-19T11:24:39.746Z,96061.88
2022-11-19T11:27:29.191Z,96071.34
2022-11-19T11:30:25.470Z,96088.25
2022-11-19T11:32:52.391Z,96068.28
2022-11-19T11:35:36.570Z,96110.22
2022-11-19T11:38:05.209Z,96102.00
2022-11-19T11:40:32.084Z,96111.47
2022-11-19T11:42:58.936Z,96087.03
2022-11-19T11:45:34.427Z,96126.31
2022-11-19T11:48:07.634Z,96110.91
2022-11-19T11:50:36.783Z,96133.22
2022-11-19T11:53:09.597Z,96092.03
2022-11-19T11:55:38.615Z,96083.19
2022-11-19T11:58:25.397Z,96078.31
2022-11-19T12:01:15.297Z,96090.56
2022-11-19T12:03:56.876Z,96071.34
2022-11-19T12:06:29.056Z,96110.22
2022-11-19T12:08:58.642Z,96117.88
2022-11-19T12:11:25.399Z,96089.78
2022-11-19T12:14:12.765Z,96084.31
2022-11-19T12:16:55.602Z,96080.75
2022-11-19T12:19:54.704Z,96087.47
2022-11-19T12:22:51.361Z,96074.94
2022-11-19T12:25:52.052Z,96078.03
2022-11-19T12:28:34.510Z,96078.06
2022-11-19T12:31:01.234Z,96069.16
2022-11-19T12:33:38.200Z,96066.47
2022-11-19T12:36:10.460Z,96050.19
2022-11-19T12:38:49.196Z,96050.88
2022-11-19T12:41:30.164Z,96028.97
2022-11-19T12:44:02.271Z,96026.72
2022-11-19T12:46:56.086Z,96016.16
2022-11-19T12:49:47.949Z,96006.72
2022-11-19T12:52:42.997Z,96010.53
2022-11-19T12:55:25.166Z,96032.06
2022-11-19T12:58:02.764Z,96034.81
2022-11-19T13:00:30.917Z,96031.47
2022-11-19T13:03:11.631Z,96019.63
2022-11-19T13:05:47.546Z,96034.28
2022-11-19T13:08:20.934Z,96042.72
2022-11-19T13:11:38.820Z,96033.75
2022-11-19T13:14:26.219Z,96038.13
2022-11-19T13:16:56.106Z,96018.19
2022-11-19T13:19:27.872Z,95998.00
2022-11-19T13:21:54.616Z,95994.47
2022-11-19T13:24:30.155Z,96000.44
2022-11-19T13:27:02.994Z,96015.09
2022-11-19T13:29:41.879Z,96017.91
2022-11-19T13:32:20.335Z,96027.59
2022-11-19T13:35:23.997Z,96021.44
2022-11-19T13:38:02.921Z,96023.31
2022-11-19T13:40:51.132Z,96006.22
2022-11-19T13:43:38.730Z,96022.81
2022-11-19T13:46:17.912Z,96015.47
2022-11-19T13:48:56.345Z,96013.66
2022-11-19T13:51:31.887Z,96011.22
2022-11-19T13:54:03.350Z,96027.47
2022-11-19T13:56:40.774Z,96013.63
2022-11-19T13:59:08.597Z,96060.59
2022-11-19T14:01:55.884Z,96025.09
2022-11-19T14:04:47.404Z,96021.53
2022-11-19T14:07:19.899Z,96016.22
2022-11-19T14:10:07.211Z,96012.34
2022-11-19T14:12:49.080Z,96035.38
2022-11-19T14:15:47.484Z,96028.41
2022-11-19T14:18:54.519Z,96019.53
2022-11-19T14:22:04.411Z,96032.06
2022-11-19T14:24:49.446Z,96043.06
2022-11-19T14:27:35.687Z,96015.25
2022-11-19T14:30:14.367Z,96017.25
2022-11-19T14:32:47.294Z,96020.28
2022-11-19T14:35:21.911Z,96033.56
2022-11-19T14:38:12.001Z,96047.38
2022-11-19T14:40:43.655Z,96033.38
2022-11-19T14:43:36.369Z,96023.09
2022-11-19T15:11:57.540Z,96025.47
2022-11-19T15:14:38.484Z,96032.84
2022-11-19T15:17:06.909Z,96026.47
2022-11-19T15:19:55.955Z,96018.06
2022-11-19T15:22:44.545Z,96029.78
2022-11-19T15:25:32.874Z,96051.03
2022-11-19T15:28:15.445Z,96044.91
2022-11-19T15:31:05.100Z,96042.75
2022-11-19T15:33:54.753Z,96027.69
2022-11-19T15:36:32.472Z,96035.94
2022-11-19T15:39:12.168Z,96031.03
2022-11-19T15:41:43.806Z,96038.28
2022-11-19T15:44:17.745Z,96043.94
2022-11-19T15:46:58.953Z,96025.50
2022-11-19T15:49:30.404Z,96018.09
2022-11-19T15:52:27.410Z,96015.81
2022-11-19T15:55:10.871Z,96015.06
2022-11-19T15:57:43.260Z,96017.38
2022-11-19T16:00:19.570Z,96013.75
2022-11-19T16:02:49.721Z,96022.00
2022-11-19T16:05:27.061Z,96023.56
2022-11-19T16:07:54.549Z,96027.38
2022-11-19T16:10:33.572Z,96061.34
2022-11-19T16:13:21.886Z,96057.50
2022-11-19T16:16:09.231Z,96043.97
2022-11-19T16:18:52.231Z,96054.41
2022-11-19T16:21:26.575Z,96025.81
2022-11-19T16:24:12.879Z,96026.59
2022-11-19T16:26:41.371Z,96046.56
2022-11-19T16:29:17.097Z,96021.75
2022-11-19T16:31:44.217Z,96024.56
2022-11-19T16:34:22.655Z,96087.19
2022-11-19T16:36:50.469Z,96031.69
2022-11-19T16:39:22.456Z,96051.19
2022-11-19T16:42:14.332Z,96054.53
2022-11-19T16:44:45.502Z,96039.66
2022-11-19T16:47:22.643Z,96036.38
2022-11-19T16:49:49.241Z,96042.75
2022-11-19T16:52:37.112Z,96041.41
2022-11-19T16:55:07.066Z,96037.06
2022-11-19T16:57:33.838Z,96031.53
2022-11-19T17:00:15.249Z,96018.44
2022-11-19T17:02:42.200Z,96018.19
2022-11-19T17:05:12.563Z,96028.94
2022-11-19T17:07:40.451Z,96024.59
2022-11-19T17:10:10.369Z,96017.72
2022-11-19T17:12:37.865Z,96023.34
2022-11-19T17:15:39.476Z,96020.78
2022-11-19T17:18:29.962Z,96045.28
2022-11-19T17:21:00.651Z,96031.00
2022-11-19T17:23:31.529Z,96033.34
2022-11-19T17:26:04.447Z,96033.56
2022-11-19T17:28:51.552Z,96027.28
2022-11-19T17:31:23.532Z,96037.22
2022-11-19T17:33:51.651Z,96042.59
2022-11-19T17:36:18.673Z,96048.72
2022-11-19T17:38:45.468Z,96057.66
2022-11-19T17:41:16.559Z,96056.13
2022-11-19T17:44:02.115Z,96061.25
2022-11-19T17:46:29.997Z,96065.06
2022-11-19T17:48:57.215Z,96065.31
2022-11-19T17:51:26.012Z,96075.81
2022-11-19T17:53:53.691Z,96079.59
2022-11-19T17:56:30.492Z,96088.88
2022-11-19T17:58:59.658Z,96084.50
2022-11-19T18:01:26.660Z,96090.13
2022-11-19T18:03:53.476Z,96088.53
2022-11-19T18:06:20.150Z,96097.03
2022-11-19T18:08:47.024Z,96093.94
2022-11-19T18:11:17.136Z,96106.50
2022-11-19T18:13:44.536Z,96083.22
2022-11-19T18:16:20.894Z,96106.00
2022-11-19T18:18:48.390Z,96098.59
2022-11-19T18:21:17.847Z,96109.06
2022-11-19T18:23:45.733Z,96108.81
2022-11-19T18:26:14.062Z,96106.53
2022-11-19T18:28:46.235Z,96114.44
2022-11-19T18:31:21.812Z,96117.47
2022-11-19T18:33:50.360Z,96106.25
2022-11-19T18:36:17.364Z,96114.22
2022-11-19T18:38:45.038Z,96109.13
2022-11-19T18:41:13.904Z,96108.06
2022-11-19T18:43:59.993Z,96142.56
2022-11-19T18:46:26.954Z,96116.50
2022-11-19T18:48:56.854Z,96104.50
2022-11-19T18:51:24.281Z,96111.13
2022-11-19T18:53:51.104Z,96108.84
2022-11-19T18:56:19.378Z,96120.88
2022-11-19T18:58:46.182Z,96116.25
2022-11-19T19:01:13.384Z,96110.09
2022-11-19T19:03:40.193Z,96120.31
2022-11-19T19:06:08.485Z,96118.75
2022-11-19T19:08:36.162Z,96125.69
2022-11-19T19:11:25.524Z,96134.59
2022-11-19T19:13:52.880Z,96132.81
2022-11-19T19:16:20.024Z,96125.63
2022-11-19T19:18:46.796Z,96129.25
2022-11-19T19:21:15.488Z,96136.94
2022-11-19T19:23:42.350Z,96118.81
2022-11-19T19:26:10.114Z,96129.28
2022-11-19T19:28:37.266Z,96138.22
2022-11-19T19:31:04.618Z,96121.88
2022-11-19T19:33:31.937Z,96141.00
2022-11-19T19:35:58.809Z,96125.66
2022-11-19T19:38:25.626Z,96130.53
2022-11-19T19:40:52.461Z,96137.44
2022-11-19T19:43:19.170Z,96122.13
2022-11-19T19:45:45.945Z,96132.59
2022-11-19T19:48:12.668Z,96151.50
2022-11-19T19:50:39.493Z,96138.22
2022-11-19T19:53:06.168Z,96142.56
2022-11-19T19:55:32.826Z,96159.72
2022-11-19T19:58:01.694Z,96158.94
2022-11-19T20:00:28.361Z,96158.44
2022-11-19T20:02:55.430Z,96157.91
2022-11-19T20:05:22.138Z,96140.03
2022-11-19T20:07:48.834Z,96158.94
2022-11-19T20:10:16.221Z,96136.47
2022-11-19T20:13:01.588Z,96150.53
2022-11-19T20:15:28.224Z,96142.66
2022-11-19T20:17:54.976Z,96147.22
2022-11-19T20:20:21.625Z,96151.81
2022-11-19T20:22:48.298Z,96149.56
2022-11-19T20:25:15.134Z,96143.69
2022-11-19T20:27:41.768Z,96145.44
2022-11-19T20:30:09.599Z,96158.19
2022-11-19T20:32:36.407Z,96155.41
2022-11-19T20:35:03.677Z,96154.66
2022-11-19T20:37:30.373Z,96153.09
2022-11-19T20:39:57.261Z,96140.78
2022-11-19T20:42:42.668Z,96144.44
2022-11-19T20:45:09.578Z,96143.91
2022-11-19T20:47:36.334Z,96150.03
2022-11-19T20:50:03.181Z,96151.81
2022-11-19T20:52:29.897Z,96164.88
2022-11-19T20:54:56.537Z,96143.31
2022-11-19T20:57:23.237Z,96160.75
2022-11-19T20:59:50.016Z,96151.81
2022-11-19T21:02:16.790Z,96161.00
2022-11-19T21:04:43.544Z,96158.72
2022-11-19T21:07:10.362Z,96147.47
2022-11-19T21:09:37.748Z,96149.03
2022-11-19T21:12:04.662Z,96163.06
2022-11-19T21:14:31.359Z,96163.59
2022-11-19T21:16:58.107Z,96160.97
2022-11-19T21:19:24.972Z,96148.97
2022-11-19T21:21:52.803Z,96149.03
2022-11-19T21:24:19.921Z,96151.81
2022-11-19T21:26:47.114Z,96135.97
2022-11-19T21:29:13.806Z,96147.44
2022-11-19T21:31:45.864Z,96144.13
2022-11-19T21:34:17.999Z,96140.03
2022-11-19T21:36:45.783Z,96140.31
2022-11-19T21:39:14.019Z,96136.69
2022-11-19T21:41:41.054Z,96126.72
2022-11-19T21:44:07.884Z,96127.22
2022-11-19T21:46:35.332Z,96124.44
2022-11-19T21:49:02.594Z,96119.13
2022-11-19T21:51:29.483Z,96114.00
2022-11-19T21:53:58.071Z,96109.91
2022-11-19T21:56:26.279Z,96120.94
2022-11-19T21:58:53.031Z,96123.50
2022-11-19T22:01:19.995Z,96135.22
2022-11-19T22:03:47.373Z,96132.66
2022-11-19T22:06:14.143Z,96118.38
2022-11-19T22:08:42.101Z,96117.56
2022-11-19T22:11:28.754Z,96114.28
2022-11-19T22:14:03.367Z,96111.47
2022-11-19T22:16:31.961Z,96113.00
2022-11-19T22:18:58.710Z,96110.19
2022-11-19T22:21:26.055Z,96127.03
2022-11-19T22:23:52.955Z,96115.00
2022-11-19T22:26:19.750Z,96115.25
2022-11-19T22:28:46.416Z,96118.34
2022-11-19T22:31:14.342Z,96114.50
2022-11-19T22:33:41.837Z,96109.16
2022-11-19T22:36:10.719Z,96102.75
2022-11-19T22:38:38.914Z,96101.25
2022-11-19T22:41:09.632Z,96109.41
2022-11-19T22:43:37.460Z,96112.75
2022-11-19T22:46:04.938Z,96111.25
2022-11-19T22:48:32.890Z,96109.69
2022-11-19T22:51:03.740Z,96116.34
2022-11-19T22:53:30.513Z,96116.34
2022-11-19T22:56:18.101Z,96124.50
2022-11-19T22:58:44.820Z,96116.59
2022-11-19T23:01:22.377Z,96113.78
2022-11-19T23:03:49.896Z,96112.25
2022-11-19T23:06:17.249Z,96118.63
2022-11-19T23:08:44.619Z,96113.81
2022-11-19T23:11:12.183Z,96112.78
2022-11-19T23:13:41.647Z,96104.81
2022-11-19T23:16:16.701Z,96103.59
2022-11-19T23:18:53.176Z,96099.44
2022-11-19T23:21:24.634Z,96095.63
2022-11-19T23:23:52.357Z,96090.53
2022-11-19T23:26:21.614Z,96087.00
2022-11-19T23:28:48.780Z,96091.38
2022-11-19T23:31:16.999Z,96083.50
2022-11-19T23:33:44.553Z,96087.00
2022-11-19T23:36:14.159Z,96085.66
2022-11-19T23:38:41.119Z,96082.41
2022-11-19T23:41:10.057Z,96070.44
2022-11-19T23:43:37.625Z,96074.03
2022-11-19T23:46:05.765Z,96080.66
2022-11-19T23:48:33.930Z,96077.31
2022-11-19T23:51:02.844Z,96065.78
2022-11-19T23:53:29.881Z,96058.13
2022-11-19T23:55:56.768Z,96057.16
2022-11-19T23:58:23.636Z,96049.47
